sensor_id;sensor_type;location;lat;lon;timestamp;P1;durP1;ratioP1;P2;durP2;ratioP2
73421;SDS011;61637;47.760;-122.022;2023-11-19T00:00:00;7.1;;;2.9;;
73421;SDS011;61637;47.760;-122.022;2023-11-19T00:02:01;7.9;;;3.3;;
73421;SDS011;61637;47.760;-122.022;2023-11-19T00:04:01;7.1;;;2.9;;
73421;SDS011;61637;47.760;-122.022;2023-11-19T00:06:02;9.9;;;3.2;;
73421;SDS011;61637;47.760;-122.022;2023-11-19T00:08:01;8.0;;;2.9;;
73421;SDS011;61637;47.760;-122.022;2023-11-19T00:10:01;8.4;;;3.1;;
73421;SDS011;61637;47.760;-122.022;2023-11-19T00:12:00;6.9;;;3.1;;
73421;SDS011;61637;47.760;-122.022;2023-11-19T00:14:01;7.5;;;3.0;;
73421;SDS011;61637;47.760;-122.022;2023-11-19T00:16:01;7.3;;;3.2;;
73421;SDS011;61637;47.760;-122.022;2023-11-19T00:18:01;6.4;;;3.0;;
73421;SDS011;61637;47.760;-122.022;2023-11-19T00:20:01;6.0;;;3.0;;
73421;SDS011;61637;47.760;-122.022;2023-11-19T00:22:01;6.6;;;3.0;;
73421;SDS011;61637;47.760;-122.022;2023-11-19T00:24:01;7.1;;;3.1;;
73421;SDS011;61637;47.760;-122.022;2023-11-19T00:26:01;6.8;;;2.8;;
73421;SDS011;61637;47.760;-122.022;2023-11-19T00:28:01;7.1;;;3.2;;
73421;SDS011;61637;47.760;-122.022;2023-11-19T00:30:01;7.4;;;3.2;;
73421;SDS011;61637;47.760;-122.022;2023-11-19T00:32:01;6.8;;;3.1;;
73421;SDS011;61637;47.760;-122.022;2023-11-19T00:34:01;7.8;;;3.1;;
73421;SDS011;61637;47.760;-122.022;2023-11-19T00:36:01;7.8;;;3.1;;
73421;SDS011;61637;47.760;-122.022;2023-11-19T00:38:01;8.9;;;3.2;;
73421;SDS011;61637;47.760;-122.022;2023-11-19T00:40:01;9.5;;;3.2;;
73421;SDS011;61637;47.760;-122.022;2023-11-19T00:42:01;6.5;;;3.2;;
73421;SDS011;61637;47.760;-122.022;2023-11-19T00:44:01;7.7;;;3.3;;
73421;SDS011;61637;47.760;-122.022;2023-11-19T00:46:01;7.9;;;3.5;;
73421;SDS011;61637;47.760;-122.022;2023-11-19T00:48:00;7.2;;;3.3;;
73421;SDS011;61637;47.760;-122.022;2023-11-19T00:50:01;7.2;;;3.3;;
73421;SDS011;61637;47.760;-122.022;2023-11-19T00:52:01;7.4;;;3.2;;
73421;SDS011;61637;47.760;-122.022;2023-11-19T00:54:01;8.7;;;3.5;;
73421;SDS011;61637;47.760;-122.022;2023-11-19T00:56:01;7.6;;;3.5;;
73421;SDS011;61637;47.760;-122.022;2023-11-19T00:58:01;7.6;;;3.4;;
73421;SDS011;61637;47.760;-122.022;2023-11-19T01:00:01;8.1;;;3.5;;
73421;SDS011;61637;47.760;-122.022;2023-11-19T01:02:01;7.4;;;3.4;;
73421;SDS011;61637;47.760;-122.022;2023-11-19T01:04:01;7.5;;;3.2;;
73421;SDS011;61637;47.760;-122.022;2023-11-19T01:06:01;7.8;;;3.3;;
73421;SDS011;61637;47.760;-122.022;2023-11-19T01:08:01;7.0;;;3.4;;
73421;SDS011;61637;47.760;-122.022;2023-11-19T01:10:01;7.1;;;3.4;;
73421;SDS011;61637;47.760;-122.022;2023-11-19T01:12:01;10.7;;;3.8;;
73421;SDS011;61637;47.760;-122.022;2023-11-19T01:14:01;7.4;;;3.2;;
73421;SDS011;61637;47.760;-122.022;2023-11-19T01:16:01;8.1;;;3.6;;
73421;SDS011;61637;47.760;-122.022;2023-11-19T01:18:01;8.2;;;3.5;;
73421;SDS011;61637;47.760;-122.022;2023-11-19T01:20:00;9.1;;;3.5;;
73421;SDS011;61637;47.760;-122.022;2023-11-19T01:22:01;8.3;;;3.3;;
73421;SDS011;61637;47.760;-122.022;2023-11-19T01:24:01;7.1;;;3.3;;
73421;SDS011;61637;47.760;-122.022;2023-11-19T01:26:01;7.5;;;3.5;;
73421;SDS011;61637;47.760;-122.022;2023-11-19T01:28:01;9.1;;;3.3;;
73421;SDS011;61637;47.760;-122.022;2023-11-19T01:30:01;8.3;;;3.5;;
73421;SDS011;61637;47.760;-122.022;2023-11-19T01:32:01;6.8;;;3.4;;
73421;SDS011;61637;47.760;-122.022;2023-11-19T01:34:01;7.0;;;3.2;;
73421;SDS011;61637;47.760;-122.022;2023-11-19T01:36:01;7.7;;;3.7;;
73421;SDS011;61637;47.760;-122.022;2023-11-19T01:38:01;8.1;;;3.6;;
73421;SDS011;61637;47.760;-122.022;2023-11-19T01:40:01;8.1;;;3.6;;
73421;SDS011;61637;47.760;-122.022;2023-11-19T01:42:01;7.5;;;3.5;;
73421;SDS011;61637;47.760;-122.022;2023-11-19T01:44:01;8.1;;;3.6;;
73421;SDS011;61637;47.760;-122.022;2023-11-19T01:46:02;8.4;;;3.4;;
73421;SDS011;61637;47.760;-122.022;2023-11-19T01:48:03;10.0;;;3.7;;
73421;SDS011;61637;47.760;-122.022;2023-11-19T01:50:02;6.9;;;3.5;;
73421;SDS011;61637;47.760;-122.022;2023-11-19T01:52:01;7.2;;;3.4;;
73421;SDS011;61637;47.760;-122.022;2023-11-19T01:54:01;7.6;;;3.4;;
73421;SDS011;61637;47.760;-122.022;2023-11-19T01:56:01;8.0;;;3.6;;
73421;SDS011;61637;47.760;-122.022;2023-11-19T01:58:02;7.5;;;3.6;;
73421;SDS011;61637;47.760;-122.022;2023-11-19T02:00:01;9.4;;;3.5;;
73421;SDS011;61637;47.760;-122.022;2023-11-19T02:02:01;7.2;;;3.4;;
73421;SDS011;61637;47.760;-122.022;2023-11-19T02:04:01;9.6;;;3.6;;
73421;SDS011;61637;47.760;-122.022;2023-11-19T02:06:02;7.9;;;4.0;;
73421;SDS011;61637;47.760;-122.022;2023-11-19T02:08:01;7.3;;;3.5;;
73421;SDS011;61637;47.760;-122.022;2023-11-19T02:10:01;8.4;;;3.7;;
73421;SDS011;61637;47.760;-122.022;2023-11-19T02:12:01;9.6;;;3.6;;
73421;SDS011;61637;47.760;-122.022;2023-11-19T02:14:01;8.5;;;3.8;;
73421;SDS011;61637;47.760;-122.022;2023-11-19T02:16:02;10.9;;;4.0;;
73421;SDS011;61637;47.760;-122.022;2023-11-19T02:18:20;9.2;;;3.5;;
73421;SDS011;61637;47.760;-122.022;2023-11-19T02:20:01;8.5;;;3.6;;
73421;SDS011;61637;47.760;-122.022;2023-11-19T02:22:01;9.5;;;3.6;;
73421;SDS011;61637;47.760;-122.022;2023-11-19T02:24:02;7.8;;;3.9;;
73421;SDS011;61637;47.760;-122.022;2023-11-19T02:26:06;8.6;;;3.8;;
73421;SDS011;61637;47.760;-122.022;2023-11-19T02:28:01;8.0;;;3.7;;
73421;SDS011;61637;47.760;-122.022;2023-11-19T02:30:01;9.1;;;3.9;;
73421;SDS011;61637;47.760;-122.022;2023-11-19T02:32:01;8.9;;;3.6;;
73421;SDS011;61637;47.760;-122.022;2023-11-19T02:34:01;9.2;;;3.8;;
73421;SDS011;61637;47.760;-122.022;2023-11-19T02:36:01;7.2;;;3.6;;
73421;SDS011;61637;47.760;-122.022;2023-11-19T02:38:01;7.2;;;3.6;;
73421;SDS011;61637;47.760;-122.022;2023-11-19T02:40:01;8.5;;;3.5;;
73421;SDS011;61637;47.760;-122.022;2023-11-19T02:42:01;9.4;;;3.8;;
73421;SDS011;61637;47.760;-122.022;2023-11-19T02:44:01;9.2;;;3.8;;
73421;SDS011;61637;47.760;-122.022;2023-11-19T02:46:02;7.8;;;4.1;;
73421;SDS011;61637;47.760;-122.022;2023-11-19T02:48:00;9.5;;;3.7;;
73421;SDS011;61637;47.760;-122.022;2023-11-19T02:50:01;9.6;;;4.0;;
73421;SDS011;61637;47.760;-122.022;2023-11-19T02:52:01;8.6;;;3.7;;
73421;SDS011;61637;47.760;-122.022;2023-11-19T02:54:02;7.5;;;3.6;;
73421;SDS011;61637;47.760;-122.022;2023-11-19T02:56:01;10.2;;;3.8;;
73421;SDS011;61637;47.760;-122.022;2023-11-19T02:58:01;7.7;;;4.0;;
73421;SDS011;61637;47.760;-122.022;2023-11-19T03:00:01;8.1;;;3.8;;
73421;SDS011;61637;47.760;-122.022;2023-11-19T03:02:01;9.7;;;3.8;;
73421;SDS011;61637;47.760;-122.022;2023-11-19T03:04:02;8.5;;;3.7;;
73421;SDS011;61637;47.760;-122.022;2023-11-19T03:06:01;9.3;;;4.2;;
73421;SDS011;61637;47.760;-122.022;2023-11-19T03:08:01;7.3;;;3.6;;
73421;SDS011;61637;47.760;-122.022;2023-11-19T03:10:01;10.0;;;3.8;;
73421;SDS011;61637;47.760;-122.022;2023-11-19T03:12:01;8.3;;;3.8;;
73421;SDS011;61637;47.760;-122.022;2023-11-19T03:14:01;8.6;;;4.0;;
73421;SDS011;61637;47.760;-122.022;2023-11-19T03:16:01;8.1;;;4.1;;
73421;SDS011;61637;47.760;-122.022;2023-11-19T03:18:01;8.8;;;3.9;;
73421;SDS011;61637;47.760;-122.022;2023-11-19T03:20:01;8.0;;;4.0;;
73421;SDS011;61637;47.760;-122.022;2023-11-19T03:22:01;9.0;;;3.9;;
73421;SDS011;61637;47.760;-122.022;2023-11-19T03:24:01;8.8;;;4.2;;
73421;SDS011;61637;47.760;-122.022;2023-11-19T03:26:01;9.8;;;4.0;;
73421;SDS011;61637;47.760;-122.022;2023-11-19T03:28:01;9.9;;;4.0;;
73421;SDS011;61637;47.760;-122.022;2023-11-19T03:30:02;8.6;;;4.0;;
73421;SDS011;61637;47.760;-122.022;2023-11-19T03:32:01;7.7;;;3.8;;
73421;SDS011;61637;47.760;-122.022;2023-11-19T03:34:00;7.1;;;3.7;;
73421;SDS011;61637;47.760;-122.022;2023-11-19T03:36:01;7.4;;;3.9;;
73421;SDS011;61637;47.760;-122.022;2023-11-19T03:38:01;8.8;;;3.7;;
73421;SDS011;61637;47.760;-122.022;2023-11-19T03:40:01;9.2;;;4.1;;
73421;SDS011;61637;47.760;-122.022;2023-11-19T03:42:01;7.8;;;3.7;;
73421;SDS011;61637;47.760;-122.022;2023-11-19T03:44:01;9.3;;;3.9;;
73421;SDS011;61637;47.760;-122.022;2023-11-19T03:46:01;7.8;;;3.9;;
73421;SDS011;61637;47.760;-122.022;2023-11-19T03:48:01;7.9;;;3.9;;
73421;SDS011;61637;47.760;-122.022;2023-11-19T03:50:01;9.7;;;3.9;;
73421;SDS011;61637;47.760;-122.022;2023-11-19T03:52:01;8.2;;;3.9;;
73421;SDS011;61637;47.760;-122.022;2023-11-19T03:54:01;7.3;;;3.3;;
73421;SDS011;61637;47.760;-122.022;2023-11-19T03:56:01;7.9;;;3.5;;
73421;SDS011;61637;47.760;-122.022;2023-11-19T03:58:01;7.0;;;3.4;;
73421;SDS011;61637;47.760;-122.022;2023-11-19T04:00:01;8.4;;;3.6;;
73421;SDS011;61637;47.760;-122.022;2023-11-19T04:02:01;7.3;;;3.6;;
73421;SDS011;61637;47.760;-122.022;2023-11-19T04:04:01;7.6;;;3.5;;
73421;SDS011;61637;47.760;-122.022;2023-11-19T04:06:01;9.1;;;3.7;;
73421;SDS011;61637;47.760;-122.022;2023-11-19T04:08:01;10.3;;;4.0;;
73421;SDS011;61637;47.760;-122.022;2023-11-19T04:10:01;8.6;;;3.9;;
73421;SDS011;61637;47.760;-122.022;2023-11-19T04:12:01;9.2;;;4.4;;
73421;SDS011;61637;47.760;-122.022;2023-11-19T04:14:01;11.2;;;4.6;;
73421;SDS011;61637;47.760;-122.022;2023-11-19T04:16:01;10.3;;;5.0;;
73421;SDS011;61637;47.760;-122.022;2023-11-19T04:18:01;9.5;;;5.1;;
73421;SDS011;61637;47.760;-122.022;2023-11-19T04:20:01;13.2;;;6.2;;
73421;SDS011;61637;47.760;-122.022;2023-11-19T04:22:01;11.6;;;6.2;;
73421;SDS011;61637;47.760;-122.022;2023-11-19T04:24:00;12.5;;;6.6;;
73421;SDS011;61637;47.760;-122.022;2023-11-19T04:26:02;14.2;;;6.8;;
73421;SDS011;61637;47.760;-122.022;2023-11-19T04:28:01;12.3;;;6.9;;
73421;SDS011;61637;47.760;-122.022;2023-11-19T04:30:01;13.1;;;6.9;;
73421;SDS011;61637;47.760;-122.022;2023-11-19T04:32:01;12.4;;;6.6;;
73421;SDS011;61637;47.760;-122.022;2023-11-19T04:34:01;13.7;;;7.0;;
73421;SDS011;61637;47.760;-122.022;2023-11-19T04:36:01;13.7;;;6.8;;
73421;SDS011;61637;47.760;-122.022;2023-11-19T04:38:01;13.0;;;6.4;;
73421;SDS011;61637;47.760;-122.022;2023-11-19T04:40:01;12.2;;;6.7;;
73421;SDS011;61637;47.760;-122.022;2023-11-19T04:42:01;14.7;;;6.7;;
73421;SDS011;61637;47.760;-122.022;2023-11-19T04:44:01;12.3;;;6.3;;
73421;SDS011;61637;47.760;-122.022;2023-11-19T04:46:03;11.8;;;6.2;;
73421;SDS011;61637;47.760;-122.022;2023-11-19T04:48:01;13.0;;;6.3;;
73421;SDS011;61637;47.760;-122.022;2023-11-19T04:50:01;12.6;;;6.7;;
73421;SDS011;61637;47.760;-122.022;2023-11-19T04:52:01;11.7;;;6.5;;
73421;SDS011;61637;47.760;-122.022;2023-11-19T04:54:01;10.9;;;6.4;;
73421;SDS011;61637;47.760;-122.022;2023-11-19T04:56:01;11.8;;;6.0;;
73421;SDS011;61637;47.760;-122.022;2023-11-19T04:58:01;13.1;;;6.1;;
73421;SDS011;61637;47.760;-122.022;2023-11-19T05:00:01;12.0;;;6.1;;
73421;SDS011;61637;47.760;-122.022;2023-11-19T05:02:01;12.0;;;6.1;;
73421;SDS011;61637;47.760;-122.022;2023-11-19T05:04:02;12.2;;;6.4;;
73421;SDS011;61637;47.760;-122.022;2023-11-19T05:06:01;12.2;;;6.3;;
73421;SDS011;61637;47.760;-122.022;2023-11-19T05:08:01;13.3;;;6.6;;
73421;SDS011;61637;47.760;-122.022;2023-11-19T05:10:01;12.5;;;6.2;;
73421;SDS011;61637;47.760;-122.022;2023-11-19T05:12:01;11.6;;;6.2;;
73421;SDS011;61637;47.760;-122.022;2023-11-19T05:14:03;12.0;;;6.4;;
73421;SDS011;61637;47.760;-122.022;2023-11-19T05:16:01;12.5;;;6.3;;
73421;SDS011;61637;47.760;-122.022;2023-11-19T05:18:01;13.0;;;6.3;;
73421;SDS011;61637;47.760;-122.022;2023-11-19T05:20:01;11.5;;;6.1;;
73421;SDS011;61637;47.760;-122.022;2023-11-19T05:22:01;12.4;;;6.2;;
73421;SDS011;61637;47.760;-122.022;2023-11-19T05:24:01;11.5;;;6.3;;
73421;SDS011;61637;47.760;-122.022;2023-11-19T05:26:01;10.9;;;5.8;;
73421;SDS011;61637;47.760;-122.022;2023-11-19T05:28:01;12.9;;;6.0;;
73421;SDS011;61637;47.760;-122.022;2023-11-19T05:30:01;12.5;;;6.2;;
73421;SDS011;61637;47.760;-122.022;2023-11-19T05:32:01;11.7;;;6.4;;
73421;SDS011;61637;47.760;-122.022;2023-11-19T05:34:00;13.0;;;7.1;;
73421;SDS011;61637;47.760;-122.022;2023-11-19T05:36:01;14.2;;;6.6;;
73421;SDS011;61637;47.760;-122.022;2023-11-19T05:38:01;14.2;;;6.2;;
73421;SDS011;61637;47.760;-122.022;2023-11-19T05:40:01;12.1;;;6.9;;
73421;SDS011;61637;47.760;-122.022;2023-11-19T05:42:01;12.7;;;6.9;;
73421;SDS011;61637;47.760;-122.022;2023-11-19T05:44:01;12.7;;;6.0;;
73421;SDS011;61637;47.760;-122.022;2023-11-19T05:46:01;13.8;;;6.2;;
73421;SDS011;61637;47.760;-122.022;2023-11-19T05:48:01;12.8;;;6.8;;
73421;SDS011;61637;47.760;-122.022;2023-11-19T05:50:01;13.1;;;6.8;;
73421;SDS011;61637;47.760;-122.022;2023-11-19T05:52:01;10.8;;;5.7;;
73421;SDS011;61637;47.760;-122.022;2023-11-19T05:54:01;14.0;;;6.6;;
73421;SDS011;61637;47.760;-122.022;2023-11-19T05:56:01;12.3;;;6.1;;
73421;SDS011;61637;47.760;-122.022;2023-11-19T05:58:01;11.5;;;6.1;;
73421;SDS011;61637;47.760;-122.022;2023-11-19T06:00:01;13.2;;;6.5;;
73421;SDS011;61637;47.760;-122.022;2023-11-19T06:02:01;13.1;;;6.3;;
73421;SDS011;61637;47.760;-122.022;2023-11-19T06:04:01;14.0;;;6.2;;
73421;SDS011;61637;47.760;-122.022;2023-11-19T06:06:01;18.8;;;7.3;;
73421;SDS011;61637;47.760;-122.022;2023-11-19T06:08:01;14.3;;;7.3;;
73421;SDS011;61637;47.760;-122.022;2023-11-19T06:10:01;16.5;;;7.2;;
73421;SDS011;61637;47.760;-122.022;2023-11-19T06:12:01;17.0;;;7.2;;
73421;SDS011;61637;47.760;-122.022;2023-11-19T06:14:01;16.1;;;7.4;;
73421;SDS011;61637;47.760;-122.022;2023-11-19T06:16:01;14.0;;;7.1;;
73421;SDS011;61637;47.760;-122.022;2023-11-19T06:18:01;16.1;;;7.0;;
73421;SDS011;61637;47.760;-122.022;2023-11-19T06:20:01;11.8;;;5.9;;
73421;SDS011;61637;47.760;-122.022;2023-11-19T06:22:01;15.2;;;6.8;;
73421;SDS011;61637;47.760;-122.022;2023-11-19T06:24:01;17.6;;;7.5;;
73421;SDS011;61637;47.760;-122.022;2023-11-19T06:26:01;14.1;;;7.2;;
73421;SDS011;61637;47.760;-122.022;2023-11-19T06:28:01;11.2;;;6.3;;
73421;SDS011;61637;47.760;-122.022;2023-11-19T06:30:01;12.3;;;6.5;;
73421;SDS011;61637;47.760;-122.022;2023-11-19T06:32:01;13.5;;;6.6;;
73421;SDS011;61637;47.760;-122.022;2023-11-19T06:34:01;15.2;;;7.0;;
73421;SDS011;61637;47.760;-122.022;2023-11-19T06:36:01;13.4;;;6.7;;
73421;SDS011;61637;47.760;-122.022;2023-11-19T06:38:00;16.0;;;7.6;;
73421;SDS011;61637;47.760;-122.022;2023-11-19T06:40:01;13.2;;;6.8;;
73421;SDS011;61637;47.760;-122.022;2023-11-19T06:42:01;17.2;;;7.3;;
73421;SDS011;61637;47.760;-122.022;2023-11-19T06:44:01;14.0;;;6.9;;
73421;SDS011;61637;47.760;-122.022;2023-11-19T06:46:01;18.2;;;7.8;;
73421;SDS011;61637;47.760;-122.022;2023-11-19T06:48:02;16.8;;;8.4;;
73421;SDS011;61637;47.760;-122.022;2023-11-19T06:50:01;12.9;;;7.0;;
73421;SDS011;61637;47.760;-122.022;2023-11-19T06:52:01;13.0;;;6.7;;
73421;SDS011;61637;47.760;-122.022;2023-11-19T06:54:01;14.9;;;7.1;;
73421;SDS011;61637;47.760;-122.022;2023-11-19T06:56:01;11.6;;;6.1;;
73421;SDS011;61637;47.760;-122.022;2023-11-19T06:58:01;12.8;;;6.5;;
73421;SDS011;61637;47.760;-122.022;2023-11-19T07:00:01;15.7;;;6.8;;
73421;SDS011;61637;47.760;-122.022;2023-11-19T07:02:01;13.5;;;6.5;;
73421;SDS011;61637;47.760;-122.022;2023-11-19T07:04:01;12.5;;;7.1;;
73421;SDS011;61637;47.760;-122.022;2023-11-19T07:06:01;15.0;;;7.3;;
73421;SDS011;61637;47.760;-122.022;2023-11-19T07:08:01;12.7;;;6.6;;
73421;SDS011;61637;47.760;-122.022;2023-11-19T07:10:01;12.9;;;6.3;;
73421;SDS011;61637;47.760;-122.022;2023-11-19T07:12:01;14.8;;;7.3;;
73421;SDS011;61637;47.760;-122.022;2023-11-19T07:14:01;10.7;;;5.5;;
73421;SDS011;61637;47.760;-122.022;2023-11-19T07:16:01;14.1;;;6.7;;
73421;SDS011;61637;47.760;-122.022;2023-11-19T07:18:01;13.9;;;7.6;;
73421;SDS011;61637;47.760;-122.022;2023-11-19T07:20:00;13.2;;;6.8;;
73421;SDS011;61637;47.760;-122.022;2023-11-19T07:22:01;14.6;;;7.2;;
73421;SDS011;61637;47.760;-122.022;2023-11-19T07:24:02;13.5;;;7.5;;
73421;SDS011;61637;47.760;-122.022;2023-11-19T07:26:01;11.9;;;6.5;;
73421;SDS011;61637;47.760;-122.022;2023-11-19T07:28:01;12.2;;;6.4;;
73421;SDS011;61637;47.760;-122.022;2023-11-19T07:30:01;14.8;;;7.6;;
73421;SDS011;61637;47.760;-122.022;2023-11-19T07:32:01;10.6;;;6.1;;
73421;SDS011;61637;47.760;-122.022;2023-11-19T07:34:01;17.7;;;7.0;;
73421;SDS011;61637;47.760;-122.022;2023-11-19T07:36:01;9.9;;;5.4;;
73421;SDS011;61637;47.760;-122.022;2023-11-19T07:38:00;11.4;;;5.9;;
73421;SDS011;61637;47.760;-122.022;2023-11-19T07:40:01;11.4;;;6.2;;
73421;SDS011;61637;47.760;-122.022;2023-11-19T07:42:01;11.9;;;6.3;;
73421;SDS011;61637;47.760;-122.022;2023-11-19T07:44:01;14.4;;;5.7;;
73421;SDS011;61637;47.760;-122.022;2023-11-19T07:46:01;11.5;;;5.9;;
73421;SDS011;61637;47.760;-122.022;2023-11-19T07:48:01;12.0;;;5.8;;
73421;SDS011;61637;47.760;-122.022;2023-11-19T07:50:00;11.9;;;6.0;;
73421;SDS011;61637;47.760;-122.022;2023-11-19T07:52:01;10.6;;;5.7;;
73421;SDS011;61637;47.760;-122.022;2023-11-19T07:54:01;11.1;;;5.4;;
73421;SDS011;61637;47.760;-122.022;2023-11-19T07:56:01;10.3;;;5.5;;
73421;SDS011;61637;47.760;-122.022;2023-11-19T07:58:01;12.5;;;6.4;;
73421;SDS011;61637;47.760;-122.022;2023-11-19T08:00:01;11.9;;;5.9;;
73421;SDS011;61637;47.760;-122.022;2023-11-19T08:02:01;12.2;;;5.7;;
73421;SDS011;61637;47.760;-122.022;2023-11-19T08:04:01;10.5;;;5.4;;
73421;SDS011;61637;47.760;-122.022;2023-11-19T08:06:01;10.5;;;5.3;;
73421;SDS011;61637;47.760;-122.022;2023-11-19T08:08:01;10.9;;;5.7;;
73421;SDS011;61637;47.760;-122.022;2023-11-19T08:10:01;11.2;;;5.6;;
73421;SDS011;61637;47.760;-122.022;2023-11-19T08:12:01;9.5;;;5.4;;
73421;SDS011;61637;47.760;-122.022;2023-11-19T08:14:01;12.1;;;5.0;;
73421;SDS011;61637;47.760;-122.022;2023-11-19T08:16:01;9.3;;;4.8;;
73421;SDS011;61637;47.760;-122.022;2023-11-19T08:18:01;11.1;;;5.7;;
73421;SDS011;61637;47.760;-122.022;2023-11-19T08:20:01;9.6;;;5.2;;
73421;SDS011;61637;47.760;-122.022;2023-11-19T08:22:01;9.3;;;4.7;;
73421;SDS011;61637;47.760;-122.022;2023-11-19T08:24:01;13.2;;;5.8;;
73421;SDS011;61637;47.760;-122.022;2023-11-19T08:26:01;8.6;;;4.2;;
73421;SDS011;61637;47.760;-122.022;2023-11-19T08:28:01;10.5;;;5.2;;
73421;SDS011;61637;47.760;-122.022;2023-11-19T08:30:01;9.7;;;5.6;;
73421;SDS011;61637;47.760;-122.022;2023-11-19T08:32:01;9.6;;;4.5;;
73421;SDS011;61637;47.760;-122.022;2023-11-19T08:34:01;8.0;;;4.0;;
73421;SDS011;61637;47.760;-122.022;2023-11-19T08:36:01;8.8;;;4.2;;
73421;SDS011;61637;47.760;-122.022;2023-11-19T08:38:00;9.2;;;4.1;;
73421;SDS011;61637;47.760;-122.022;2023-11-19T08:40:01;9.0;;;4.3;;
73421;SDS011;61637;47.760;-122.022;2023-11-19T08:42:01;8.6;;;4.2;;
73421;SDS011;61637;47.760;-122.022;2023-11-19T08:44:01;7.8;;;4.1;;
73421;SDS011;61637;47.760;-122.022;2023-11-19T08:46:01;10.4;;;4.2;;
73421;SDS011;61637;47.760;-122.022;2023-11-19T08:48:01;6.9;;;3.1;;
73421;SDS011;61637;47.760;-122.022;2023-11-19T08:50:01;7.5;;;3.3;;
73421;SDS011;61637;47.760;-122.022;2023-11-19T08:52:01;6.3;;;2.9;;
73421;SDS011;61637;47.760;-122.022;2023-11-19T08:54:01;7.0;;;2.8;;
73421;SDS011;61637;47.760;-122.022;2023-11-19T08:56:01;6.4;;;3.1;;
73421;SDS011;61637;47.760;-122.022;2023-11-19T08:58:00;7.1;;;2.8;;
73421;SDS011;61637;47.760;-122.022;2023-11-19T09:00:01;6.9;;;2.7;;
73421;SDS011;61637;47.760;-122.022;2023-11-19T09:02:01;6.8;;;2.7;;
73421;SDS011;61637;47.760;-122.022;2023-11-19T09:04:02;6.3;;;2.3;;
73421;SDS011;61637;47.760;-122.022;2023-11-19T09:06:01;7.2;;;2.5;;
73421;SDS011;61637;47.760;-122.022;2023-11-19T09:08:00;7.7;;;2.7;;
73421;SDS011;61637;47.760;-122.022;2023-11-19T09:10:01;6.8;;;2.6;;
73421;SDS011;61637;47.760;-122.022;2023-11-19T09:12:01;6.8;;;2.4;;
73421;SDS011;61637;47.760;-122.022;2023-11-19T09:14:01;5.6;;;2.1;;
73421;SDS011;61637;47.760;-122.022;2023-11-19T09:16:01;6.5;;;2.1;;
73421;SDS011;61637;47.760;-122.022;2023-11-19T09:18:01;7.0;;;2.4;;
73421;SDS011;61637;47.760;-122.022;2023-11-19T09:20:01;7.7;;;2.1;;
73421;SDS011;61637;47.760;-122.022;2023-11-19T09:22:01;6.9;;;1.8;;
73421;SDS011;61637;47.760;-122.022;2023-11-19T09:24:01;6.9;;;1.8;;
73421;SDS011;61637;47.760;-122.022;2023-11-19T09:26:01;7.3;;;1.7;;
73421;SDS011;61637;47.760;-122.022;2023-11-19T09:28:01;5.8;;;2.0;;
73421;SDS011;61637;47.760;-122.022;2023-11-19T09:30:01;6.7;;;1.9;;
73421;SDS011;61637;47.760;-122.022;2023-11-19T09:32:01;8.3;;;1.7;;
73421;SDS011;61637;47.760;-122.022;2023-11-19T09:34:01;7.7;;;1.7;;
73421;SDS011;61637;47.760;-122.022;2023-11-19T09:36:01;8.4;;;1.9;;
73421;SDS011;61637;47.760;-122.022;2023-11-19T09:38:01;7.2;;;1.8;;
73421;SDS011;61637;47.760;-122.022;2023-11-19T09:40:01;7.4;;;1.7;;
73421;SDS011;61637;47.760;-122.022;2023-11-19T09:42:01;10.2;;;1.8;;
73421;SDS011;61637;47.760;-122.022;2023-11-19T09:44:01;11.8;;;1.9;;
73421;SDS011;61637;47.760;-122.022;2023-11-19T09:46:04;9.2;;;1.7;;
73421;SDS011;61637;47.760;-122.022;2023-11-19T09:48:01;10.6;;;1.6;;
73421;SDS011;61637;47.760;-122.022;2023-11-19T09:50:01;11.9;;;1.6;;
73421;SDS011;61637;47.760;-122.022;2023-11-19T09:52:01;11.5;;;1.8;;
73421;SDS011;61637;47.760;-122.022;2023-11-19T09:54:01;11.4;;;1.8;;
73421;SDS011;61637;47.760;-122.022;2023-11-19T09:56:02;12.2;;;2.0;;
73421;SDS011;61637;47.760;-122.022;2023-11-19T09:58:01;13.3;;;2.1;;
73421;SDS011;61637;47.760;-122.022;2023-11-19T10:00:02;10.2;;;1.8;;
73421;SDS011;61637;47.760;-122.022;2023-11-19T10:02:02;15.0;;;2.3;;
73421;SDS011;61637;47.760;-122.022;2023-11-19T10:04:01;12.0;;;1.7;;
73421;SDS011;61637;47.760;-122.022;2023-11-19T10:06:02;12.9;;;2.0;;
73421;SDS011;61637;47.760;-122.022;2023-11-19T10:08:02;11.9;;;2.1;;
73421;SDS011;61637;47.760;-122.022;2023-11-19T10:10:01;16.7;;;2.2;;
73421;SDS011;61637;47.760;-122.022;2023-11-19T10:12:01;17.7;;;2.1;;
73421;SDS011;61637;47.760;-122.022;2023-11-19T10:14:01;15.9;;;2.1;;
73421;SDS011;61637;47.760;-122.022;2023-11-19T10:16:04;18.4;;;2.5;;
73421;SDS011;61637;47.760;-122.022;2023-11-19T10:18:01;17.3;;;2.3;;
73421;SDS011;61637;47.760;-122.022;2023-11-19T10:20:01;14.9;;;1.9;;
73421;SDS011;61637;47.760;-122.022;2023-11-19T10:22:04;16.3;;;2.1;;
73421;SDS011;61637;47.760;-122.022;2023-11-19T10:24:01;16.7;;;2.3;;
73421;SDS011;61637;47.760;-122.022;2023-11-19T10:26:04;17.7;;;2.0;;
73421;SDS011;61637;47.760;-122.022;2023-11-19T10:28:01;17.4;;;2.4;;
73421;SDS011;61637;47.760;-122.022;2023-11-19T10:30:01;16.8;;;2.2;;
73421;SDS011;61637;47.760;-122.022;2023-11-19T10:32:01;19.3;;;2.7;;
73421;SDS011;61637;47.760;-122.022;2023-11-19T10:34:01;16.7;;;2.2;;
73421;SDS011;61637;47.760;-122.022;2023-11-19T10:36:01;17.9;;;2.2;;
73421;SDS011;61637;47.760;-122.022;2023-11-19T10:38:01;18.1;;;2.5;;
73421;SDS011;61637;47.760;-122.022;2023-11-19T10:40:01;24.2;;;3.2;;
73421;SDS011;61637;47.760;-122.022;2023-11-19T10:42:15;19.5;;;2.2;;
73421;SDS011;61637;47.760;-122.022;2023-11-19T10:44:01;24.2;;;2.5;;
73421;SDS011;61637;47.760;-122.022;2023-11-19T10:46:09;19.1;;;2.4;;
73421;SDS011;61637;47.760;-122.022;2023-11-19T10:48:02;14.1;;;2.2;;
73421;SDS011;61637;47.760;-122.022;2023-11-19T10:50:01;19.8;;;2.5;;
73421;SDS011;61637;47.760;-122.022;2023-11-19T10:52:02;14.8;;;1.9;;
73421;SDS011;61637;47.760;-122.022;2023-11-19T10:54:04;21.1;;;2.4;;
73421;SDS011;61637;47.760;-122.022;2023-11-19T10:56:02;26.9;;;2.7;;
73421;SDS011;61637;47.760;-122.022;2023-11-19T10:58:02;21.8;;;2.8;;
73421;SDS011;61637;47.760;-122.022;2023-11-19T11:00:02;17.4;;;2.3;;
73421;SDS011;61637;47.760;-122.022;2023-11-19T11:02:06;30.6;;;2.7;;
73421;SDS011;61637;47.760;-122.022;2023-11-19T11:04:02;18.4;;;2.3;;
73421;SDS011;61637;47.760;-122.022;2023-11-19T11:06:04;18.5;;;2.1;;
73421;SDS011;61637;47.760;-122.022;2023-11-19T11:08:01;14.8;;;2.1;;
73421;SDS011;61637;47.760;-122.022;2023-11-19T11:10:02;24.8;;;2.5;;
73421;SDS011;61637;47.760;-122.022;2023-11-19T11:12:01;19.2;;;2.1;;
73421;SDS011;61637;47.760;-122.022;2023-11-19T11:14:02;13.1;;;1.9;;
73421;SDS011;61637;47.760;-122.022;2023-11-19T11:16:02;26.2;;;2.2;;
73421;SDS011;61637;47.760;-122.022;2023-11-19T11:18:02;18.0;;;2.1;;
73421;SDS011;61637;47.760;-122.022;2023-11-19T11:20:01;15.9;;;2.0;;
73421;SDS011;61637;47.760;-122.022;2023-11-19T11:22:02;15.2;;;1.9;;
73421;SDS011;61637;47.760;-122.022;2023-11-19T11:24:20;16.4;;;2.1;;
73421;SDS011;61637;47.760;-122.022;2023-11-19T11:26:09;8.0;;;1.8;;
73421;SDS011;61637;47.760;-122.022;2023-11-19T11:28:11;12.8;;;1.8;;
73421;SDS011;61637;47.760;-122.022;2023-11-19T11:30:09;11.6;;;2.1;;
73421;SDS011;61637;47.760;-122.022;2023-11-19T11:32:07;11.5;;;1.6;;
73421;SDS011;61637;47.760;-122.022;2023-11-19T11:34:09;11.5;;;1.8;;
73421;SDS011;61637;47.760;-122.022;2023-11-19T11:36:08;12.2;;;1.6;;
73421;SDS011;61637;47.760;-122.022;2023-11-19T11:38:06;17.6;;;2.2;;
73421;SDS011;61637;47.760;-122.022;2023-11-19T11:40:02;12.4;;;1.7;;
73421;SDS011;61637;47.760;-122.022;2023-11-19T11:44:01;10.9;;;1.6;;
73421;SDS011;61637;47.760;-122.022;2023-11-19T11:46:01;10.4;;;1.7;;
73421;SDS011;61637;47.760;-122.022;2023-11-19T11:48:10;11.3;;;1.6;;